sensor_id;sensor_type;location;lat;lon;timestamp;P1;durP1;ratioP1;P2;durP2;ratioP2
22606;SDS011;11470;20.968;105.834;2023-04-03T00:01:57;23.35;;;13.75;;
22606;SDS011;11470;20.968;105.834;2023-04-03T00:07:02;37.10;;;24.13;;
22606;SDS011;11470;20.968;105.834;2023-04-03T00:12:08;42.67;;;26.37;;
22606;SDS011;11470;20.968;105.834;2023-04-03T00:17:14;38.90;;;24.52;;
22606;SDS011;11470;20.968;105.834;2023-04-03T00:22:20;30.17;;;20.60;;
22606;SDS011;11470;20.968;105.834;2023-04-03T00:27:26;50.67;;;35.28;;
22606;SDS011;11470;20.968;105.834;2023-04-03T00:32:32;64.85;;;41.60;;
22606;SDS011;11470;20.968;105.834;2023-04-03T00:37:38;41.72;;;29.05;;
22606;SDS011;11470;20.968;105.834;2023-04-03T00:42:45;41.97;;;29.83;;
22606;SDS011;11470;20.968;105.834;2023-04-03T00:47:56;51.85;;;33.80;;
22606;SDS011;11470;20.968;105.834;2023-04-03T00:53:04;67.90;;;43.13;;
22606;SDS011;11470;20.968;105.834;2023-04-03T00:58:13;57.60;;;34.50;;
22606;SDS011;11470;20.968;105.834;2023-04-03T01:03:23;59.33;;;38.40;;
22606;SDS011;11470;20.968;105.834;2023-04-03T01:08:29;60.47;;;36.20;;
22606;SDS011;11470;20.968;105.834;2023-04-03T01:13:36;69.50;;;45.25;;
22606;SDS011;11470;20.968;105.834;2023-04-03T01:18:42;52.72;;;32.20;;
22606;SDS011;11470;20.968;105.834;2023-04-03T01:29:16;85.70;;;52.25;;
22606;SDS011;11470;20.968;105.834;2023-04-03T01:34:24;85.07;;;49.95;;
22606;SDS011;11470;20.968;105.834;2023-04-03T01:39:31;99.20;;;55.17;;
22606;SDS011;11470;20.968;105.834;2023-04-03T01:44:37;61.60;;;34.97;;
22606;SDS011;11470;20.968;105.834;2023-04-03T01:49:43;68.82;;;40.33;;
22606;SDS011;11470;20.968;105.834;2023-04-03T01:54:48;81.70;;;49.22;;
22606;SDS011;11470;20.968;105.834;2023-04-03T01:59:55;91.57;;;50.92;;
22606;SDS011;11470;20.968;105.834;2023-04-03T02:05:00;79.65;;;43.25;;
22606;SDS011;11470;20.968;105.834;2023-04-03T02:10:07;73.97;;;44.28;;
22606;SDS011;11470;20.968;105.834;2023-04-03T02:15:13;101.78;;;57.97;;
22606;SDS011;11470;20.968;105.834;2023-04-03T02:20:19;78.38;;;47.40;;
22606;SDS011;11470;20.968;105.834;2023-04-03T02:25:25;76.22;;;46.38;;
22606;SDS011;11470;20.968;105.834;2023-04-03T02:30:30;62.08;;;38.90;;
22606;SDS011;11470;20.968;105.834;2023-04-03T02:35:38;72.22;;;43.95;;
22606;SDS011;11470;20.968;105.834;2023-04-03T02:40:44;73.15;;;42.38;;
22606;SDS011;11470;20.968;105.834;2023-04-03T02:45:49;59.85;;;35.53;;
22606;SDS011;11470;20.968;105.834;2023-04-03T02:56:01;65.95;;;40.17;;
22606;SDS011;11470;20.968;105.834;2023-04-03T03:01:07;70.40;;;43.40;;
22606;SDS011;11470;20.968;105.834;2023-04-03T03:06:14;66.57;;;42.38;;
22606;SDS011;11470;20.968;105.834;2023-04-03T03:11:21;64.05;;;42.08;;
22606;SDS011;11470;20.968;105.834;2023-04-03T03:16:27;69.78;;;40.25;;
22606;SDS011;11470;20.968;105.834;2023-04-03T03:21:33;67.55;;;41.25;;
22606;SDS011;11470;20.968;105.834;2023-04-03T03:26:40;86.18;;;50.03;;
22606;SDS011;11470;20.968;105.834;2023-04-03T03:31:47;58.75;;;37.70;;
22606;SDS011;11470;20.968;105.834;2023-04-03T03:41:59;36.67;;;24.63;;
22606;SDS011;11470;20.968;105.834;2023-04-03T03:47:04;52.97;;;33.90;;
22606;SDS011;11470;20.968;105.834;2023-04-03T03:57:15;42.42;;;27.90;;
22606;SDS011;11470;20.968;105.834;2023-04-03T04:02:22;46.92;;;30.27;;
22606;SDS011;11470;20.968;105.834;2023-04-03T04:07:28;51.75;;;31.80;;
22606;SDS011;11470;20.968;105.834;2023-04-03T04:12:36;44.70;;;28.73;;
22606;SDS011;11470;20.968;105.834;2023-04-03T04:17:44;69.65;;;42.00;;
22606;SDS011;11470;20.968;105.834;2023-04-03T04:22:50;61.38;;;37.83;;
22606;SDS011;11470;20.968;105.834;2023-04-03T04:27:57;66.22;;;41.03;;
22606;SDS011;11470;20.968;105.834;2023-04-03T04:33:03;72.43;;;43.42;;
22606;SDS011;11470;20.968;105.834;2023-04-03T04:43:16;96.18;;;56.53;;
22606;SDS011;11470;20.968;105.834;2023-04-03T04:48:25;57.92;;;36.63;;
22606;SDS011;11470;20.968;105.834;2023-04-03T04:53:35;67.38;;;42.80;;
22606;SDS011;11470;20.968;105.834;2023-04-03T04:58:43;87.82;;;51.53;;
22606;SDS011;11470;20.968;105.834;2023-04-03T05:04:08;94.60;;;54.83;;
22606;SDS011;11470;20.968;105.834;2023-04-03T05:09:14;82.40;;;51.60;;
22606;SDS011;11470;20.968;105.834;2023-04-03T05:14:21;92.18;;;55.10;;
22606;SDS011;11470;20.968;105.834;2023-04-03T05:20:22;80.72;;;49.38;;
22606;SDS011;11470;20.968;105.834;2023-04-03T05:25:28;85.60;;;52.53;;
22606;SDS011;11470;20.968;105.834;2023-04-03T05:30:37;94.82;;;58.67;;
22606;SDS011;11470;20.968;105.834;2023-04-03T05:35:43;90.32;;;56.78;;
22606;SDS011;11470;20.968;105.834;2023-04-03T05:40:54;77.72;;;48.85;;
22606;SDS011;11470;20.968;105.834;2023-04-03T05:45:59;96.18;;;58.13;;
22606;SDS011;11470;20.968;105.834;2023-04-03T05:51:06;87.03;;;56.28;;
22606;SDS011;11470;20.968;105.834;2023-04-03T05:56:19;85.43;;;55.47;;
22606;SDS011;11470;20.968;105.834;2023-04-03T06:01:28;92.95;;;56.22;;
22606;SDS011;11470;20.968;105.834;2023-04-03T06:12:23;82.60;;;54.50;;
22606;SDS011;11470;20.968;105.834;2023-04-03T06:17:29;81.68;;;55.05;;
22606;SDS011;11470;20.968;105.834;2023-04-03T06:22:48;75.65;;;49.53;;
22606;SDS011;11470;20.968;105.834;2023-04-03T06:27:55;72.45;;;45.75;;
22606;SDS011;11470;20.968;105.834;2023-04-03T06:33:04;70.53;;;49.53;;
22606;SDS011;11470;20.968;105.834;2023-04-03T06:38:13;73.38;;;49.17;;
22606;SDS011;11470;20.968;105.834;2023-04-03T06:43:19;74.15;;;46.25;;
22606;SDS011;11470;20.968;105.834;2023-04-03T06:48:26;64.53;;;40.40;;
22606;SDS011;11470;20.968;105.834;2023-04-03T06:53:31;68.90;;;44.90;;
22606;SDS011;11470;20.968;105.834;2023-04-03T06:58:37;72.60;;;48.90;;
22606;SDS011;11470;20.968;105.834;2023-04-03T07:03:43;64.28;;;44.45;;
22606;SDS011;11470;20.968;105.834;2023-04-03T07:08:50;58.65;;;42.15;;
22606;SDS011;11470;20.968;105.834;2023-04-03T07:19:02;60.47;;;38.53;;
22606;SDS011;11470;20.968;105.834;2023-04-03T07:24:08;52.28;;;38.38;;
22606;SDS011;11470;20.968;105.834;2023-04-03T07:29:18;49.00;;;33.33;;
22606;SDS011;11470;20.968;105.834;2023-04-03T07:34:25;54.47;;;37.13;;
22606;SDS011;11470;20.968;105.834;2023-04-03T07:39:31;49.38;;;31.48;;
22606;SDS011;11470;20.968;105.834;2023-04-03T07:44:37;51.42;;;33.95;;
22606;SDS011;11470;20.968;105.834;2023-04-03T07:49:42;59.35;;;37.63;;
22606;SDS011;11470;20.968;105.834;2023-04-03T07:59:56;57.80;;;41.72;;
22606;SDS011;11470;20.968;105.834;2023-04-03T08:05:12;46.45;;;31.17;;
22606;SDS011;11470;20.968;105.834;2023-04-03T08:10:18;42.28;;;26.85;;
22606;SDS011;11470;20.968;105.834;2023-04-03T08:15:26;52.13;;;36.15;;
22606;SDS011;11470;20.968;105.834;2023-04-03T08:20:32;40.85;;;25.85;;
22606;SDS011;11470;20.968;105.834;2023-04-03T08:25:41;50.33;;;36.83;;
22606;SDS011;11470;20.968;105.834;2023-04-03T08:30:47;54.40;;;34.45;;
22606;SDS011;11470;20.968;105.834;2023-04-03T08:35:53;46.25;;;31.20;;
22606;SDS011;11470;20.968;105.834;2023-04-03T08:52:19;44.77;;;26.60;;
22606;SDS011;11470;20.968;105.834;2023-04-03T08:57:35;39.45;;;27.30;;
22606;SDS011;11470;20.968;105.834;2023-04-03T09:02:48;38.70;;;27.23;;
22606;SDS011;11470;20.968;105.834;2023-04-03T09:07:58;44.10;;;31.85;;
22606;SDS011;11470;20.968;105.834;2023-04-03T09:13:24;44.35;;;30.75;;
22606;SDS011;11470;20.968;105.834;2023-04-03T09:18:32;39.00;;;28.38;;
22606;SDS011;11470;20.968;105.834;2023-04-03T09:23:48;43.63;;;27.83;;
22606;SDS011;11470;20.968;105.834;2023-04-03T09:28:57;42.20;;;28.60;;
22606;SDS011;11470;20.968;105.834;2023-04-03T09:34:13;40.72;;;26.50;;
22606;SDS011;11470;20.968;105.834;2023-04-03T09:39:31;43.30;;;27.67;;
22606;SDS011;11470;20.968;105.834;2023-04-03T09:45:03;39.78;;;29.08;;
22606;SDS011;11470;20.968;105.834;2023-04-03T09:55:24;42.40;;;29.80;;
22606;SDS011;11470;20.968;105.834;2023-04-03T10:00:36;44.75;;;28.98;;
22606;SDS011;11470;20.968;105.834;2023-04-03T10:05:44;45.30;;;27.63;;
22606;SDS011;11470;20.968;105.834;2023-04-03T10:11:06;39.35;;;27.60;;
22606;SDS011;11470;20.968;105.834;2023-04-03T10:16:15;46.55;;;27.38;;
22606;SDS011;11470;20.968;105.834;2023-04-03T10:21:35;45.22;;;28.17;;
22606;SDS011;11470;20.968;105.834;2023-04-03T10:37:21;41.15;;;26.77;;
22606;SDS011;11470;20.968;105.834;2023-04-03T10:42:54;38.15;;;27.38;;
22606;SDS011;11470;20.968;105.834;2023-04-03T10:59:26;45.33;;;31.07;;
22606;SDS011;11470;20.968;105.834;2023-04-03T11:09:46;42.00;;;29.35;;
22606;SDS011;11470;20.968;105.834;2023-04-03T11:14:56;49.67;;;34.63;;
22606;SDS011;11470;20.968;105.834;2023-04-03T11:25:32;53.83;;;36.03;;
22606;SDS011;11470;20.968;105.834;2023-04-03T11:36:18;56.20;;;37.70;;
22606;SDS011;11470;20.968;105.834;2023-04-03T11:41:34;63.67;;;36.95;;
22606;SDS011;11470;20.968;105.834;2023-04-03T11:51:58;61.25;;;37.50;;
22606;SDS011;11470;20.968;105.834;2023-04-03T11:57:42;162.30;;;86.50;;
22606;SDS011;11470;20.968;105.834;2023-04-03T12:02:52;207.95;;;111.15;;
22606;SDS011;11470;20.968;105.834;2023-04-03T12:13:34;67.20;;;42.72;;
22606;SDS011;11470;20.968;105.834;2023-04-03T12:25:01;69.88;;;43.20;;
22606;SDS011;11470;20.968;105.834;2023-04-03T12:30:45;75.55;;;47.13;;
22606;SDS011;11470;20.968;105.834;2023-04-03T12:41:58;82.97;;;48.03;;
22606;SDS011;11470;20.968;105.834;2023-04-03T12:47:31;104.95;;;58.80;;
22606;SDS011;11470;20.968;105.834;2023-04-03T12:52:56;63.88;;;38.80;;
22606;SDS011;11470;20.968;105.834;2023-04-03T12:58:16;80.20;;;44.53;;
22606;SDS011;11470;20.968;105.834;2023-04-03T13:03:26;115.45;;;59.38;;
22606;SDS011;11470;20.968;105.834;2023-04-03T13:08:35;58.63;;;39.05;;
22606;SDS011;11470;20.968;105.834;2023-04-03T13:13:53;63.85;;;41.05;;
22606;SDS011;11470;20.968;105.834;2023-04-03T13:19:03;62.33;;;37.08;;
22606;SDS011;11470;20.968;105.834;2023-04-03T13:24:19;75.45;;;42.78;;
22606;SDS011;11470;20.968;105.834;2023-04-03T13:34:40;69.30;;;41.03;;
22606;SDS011;11470;20.968;105.834;2023-04-03T13:45:39;82.15;;;47.22;;
22606;SDS011;11470;20.968;105.834;2023-04-03T13:51:14;83.40;;;45.90;;
22606;SDS011;11470;20.968;105.834;2023-04-03T13:56:35;75.70;;;44.58;;
22606;SDS011;11470;20.968;105.834;2023-04-03T14:01:50;56.90;;;37.15;;
22606;SDS011;11470;20.968;105.834;2023-04-03T14:07:15;74.18;;;44.70;;
22606;SDS011;11470;20.968;105.834;2023-04-03T14:12:33;66.63;;;39.05;;
22606;SDS011;11470;20.968;105.834;2023-04-03T14:17:41;65.07;;;37.38;;
22606;SDS011;11470;20.968;105.834;2023-04-03T14:27:52;61.45;;;37.80;;
22606;SDS011;11470;20.968;105.834;2023-04-03T14:32:59;56.83;;;32.15;;
22606;SDS011;11470;20.968;105.834;2023-04-03T14:38:05;63.00;;;37.38;;
22606;SDS011;11470;20.968;105.834;2023-04-03T14:43:35;55.80;;;31.17;;
22606;SDS011;11470;20.968;105.834;2023-04-03T14:48:46;59.92;;;34.25;;
22606;SDS011;11470;20.968;105.834;2023-04-03T14:53:55;67.07;;;33.30;;
22606;SDS011;11470;20.968;105.834;2023-04-03T14:59:02;57.22;;;37.03;;
22606;SDS011;11470;20.968;105.834;2023-04-03T15:04:14;69.95;;;40.67;;
22606;SDS011;11470;20.968;105.834;2023-04-03T15:09:22;61.25;;;32.30;;
22606;SDS011;11470;20.968;105.834;2023-04-03T15:14:29;54.75;;;34.17;;
22606;SDS011;11470;20.968;105.834;2023-04-03T15:19:43;51.33;;;33.25;;
22606;SDS011;11470;20.968;105.834;2023-04-03T15:24:56;59.50;;;35.03;;
22606;SDS011;11470;20.968;105.834;2023-04-03T15:30:03;56.53;;;35.25;;
22606;SDS011;11470;20.968;105.834;2023-04-03T15:35:16;54.95;;;32.95;;
22606;SDS011;11470;20.968;105.834;2023-04-03T15:40:22;56.42;;;33.97;;
22606;SDS011;11470;20.968;105.834;2023-04-03T15:45:28;62.35;;;38.08;;
22606;SDS011;11470;20.968;105.834;2023-04-03T15:50:35;58.05;;;36.00;;
22606;SDS011;11470;20.968;105.834;2023-04-03T15:55:41;60.17;;;37.45;;
22606;SDS011;11470;20.968;105.834;2023-04-03T16:06:16;59.22;;;37.20;;
22606;SDS011;11470;20.968;105.834;2023-04-03T16:11:23;52.25;;;32.92;;
22606;SDS011;11470;20.968;105.834;2023-04-03T16:16:29;56.80;;;35.38;;
22606;SDS011;11470;20.968;105.834;2023-04-03T16:21:35;55.07;;;30.83;;
22606;SDS011;11470;20.968;105.834;2023-04-03T16:26:41;56.55;;;34.03;;
22606;SDS011;11470;20.968;105.834;2023-04-03T16:31:49;58.10;;;35.97;;
22606;SDS011;11470;20.968;105.834;2023-04-03T16:36:56;57.17;;;35.38;;
22606;SDS011;11470;20.968;105.834;2023-04-03T16:42:02;58.72;;;30.30;;
22606;SDS011;11470;20.968;105.834;2023-04-03T16:47:22;54.10;;;31.58;;
22606;SDS011;11470;20.968;105.834;2023-04-03T16:52:28;51.37;;;31.83;;
22606;SDS011;11470;20.968;105.834;2023-04-03T17:02:39;55.70;;;32.88;;
22606;SDS011;11470;20.968;105.834;2023-04-03T17:07:45;47.38;;;30.73;;
22606;SDS011;11470;20.968;105.834;2023-04-03T17:12:51;51.72;;;31.73;;
22606;SDS011;11470;20.968;105.834;2023-04-03T17:17:57;52.05;;;30.48;;
22606;SDS011;11470;20.968;105.834;2023-04-03T17:23:08;49.25;;;30.45;;
22606;SDS011;11470;20.968;105.834;2023-04-03T17:33:19;49.65;;;29.73;;
22606;SDS011;11470;20.968;105.834;2023-04-03T17:38:24;50.67;;;29.20;;
22606;SDS011;11470;20.968;105.834;2023-04-03T17:43:30;43.67;;;30.23;;
22606;SDS011;11470;20.968;105.834;2023-04-03T17:48:37;41.80;;;30.33;;
22606;SDS011;11470;20.968;105.834;2023-04-03T17:53:44;46.03;;;31.35;;
22606;SDS011;11470;20.968;105.834;2023-04-03T17:58:50;47.92;;;31.05;;
22606;SDS011;11470;20.968;105.834;2023-04-03T18:03:58;49.95;;;32.10;;
22606;SDS011;11470;20.968;105.834;2023-04-03T18:09:06;45.47;;;31.27;;
22606;SDS011;11470;20.968;105.834;2023-04-03T18:14:23;47.78;;;31.90;;
22606;SDS011;11470;20.968;105.834;2023-04-03T18:19:30;43.80;;;29.20;;
22606;SDS011;11470;20.968;105.834;2023-04-03T18:24:36;42.33;;;30.52;;
22606;SDS011;11470;20.968;105.834;2023-04-03T18:34:48;48.07;;;32.10;;
22606;SDS011;11470;20.968;105.834;2023-04-03T18:39:53;43.83;;;31.15;;
22606;SDS011;11470;20.968;105.834;2023-04-03T18:50:06;45.97;;;30.58;;
22606;SDS011;11470;20.968;105.834;2023-04-03T19:00:19;49.33;;;32.72;;
22606;SDS011;11470;20.968;105.834;2023-04-03T19:10:30;42.63;;;30.23;;
22606;SDS011;11470;20.968;105.834;2023-04-03T19:15:36;42.63;;;30.02;;
22606;SDS011;11470;20.968;105.834;2023-04-03T19:20:42;43.95;;;30.38;;
22606;SDS011;11470;20.968;105.834;2023-04-03T19:25:56;45.40;;;30.17;;
22606;SDS011;11470;20.968;105.834;2023-04-03T19:31:13;43.08;;;31.30;;
22606;SDS011;11470;20.968;105.834;2023-04-03T19:36:20;45.70;;;31.20;;
22606;SDS011;11470;20.968;105.834;2023-04-03T19:41:26;39.70;;;29.17;;
22606;SDS011;11470;20.968;105.834;2023-04-03T19:46:34;38.70;;;28.95;;
22606;SDS011;11470;20.968;105.834;2023-04-03T19:51:40;40.67;;;28.08;;
22606;SDS011;11470;20.968;105.834;2023-04-03T19:56:45;42.53;;;28.15;;
22606;SDS011;11470;20.968;105.834;2023-04-03T20:01:51;39.10;;;30.08;;
22606;SDS011;11470;20.968;105.834;2023-04-03T20:06:56;43.13;;;30.48;;
22606;SDS011;11470;20.968;105.834;2023-04-03T20:12:02;46.22;;;31.15;;
22606;SDS011;11470;20.968;105.834;2023-04-03T20:17:08;41.45;;;29.30;;
22606;SDS011;11470;20.968;105.834;2023-04-03T20:22:14;48.40;;;31.15;;
22606;SDS011;11470;20.968;105.834;2023-04-03T20:27:19;42.00;;;30.08;;
22606;SDS011;11470;20.968;105.834;2023-04-03T20:32:25;38.95;;;30.30;;
22606;SDS011;11470;20.968;105.834;2023-04-03T20:37:31;38.60;;;29.35;;
22606;SDS011;11470;20.968;105.834;2023-04-03T20:42:37;43.57;;;31.03;;
22606;SDS011;11470;20.968;105.834;2023-04-03T20:47:42;40.55;;;29.35;;
22606;SDS011;11470;20.968;105.834;2023-04-03T20:52:49;39.78;;;28.02;;
22606;SDS011;11470;20.968;105.834;2023-04-03T20:57:54;42.47;;;28.50;;
22606;SDS011;11470;20.968;105.834;2023-04-03T21:03:04;43.25;;;29.98;;
22606;SDS011;11470;20.968;105.834;2023-04-03T21:19:35;39.33;;;27.33;;
22606;SDS011;11470;20.968;105.834;2023-04-03T21:24:48;46.28;;;30.23;;
22606;SDS011;11470;20.968;105.834;2023-04-03T21:29:54;43.92;;;29.27;;
22606;SDS011;11470;20.968;105.834;2023-04-03T21:34:59;44.13;;;30.50;;
22606;SDS011;11470;20.968;105.834;2023-04-03T21:40:05;53.60;;;33.17;;
22606;SDS011;11470;20.968;105.834;2023-04-03T21:45:11;48.60;;;31.10;;
22606;SDS011;11470;20.968;105.834;2023-04-03T21:50:18;42.63;;;29.73;;
22606;SDS011;11470;20.968;105.834;2023-04-03T21:55:24;39.58;;;28.10;;
22606;SDS011;11470;20.968;105.834;2023-04-03T22:00:29;64.68;;;33.58;;
22606;SDS011;11470;20.968;105.834;2023-04-03T22:05:36;60.70;;;34.85;;
22606;SDS011;11470;20.968;105.834;2023-04-03T22:10:41;51.83;;;33.30;;
22606;SDS011;11470;20.968;105.834;2023-04-03T22:15:47;43.95;;;31.30;;
22606;SDS011;11470;20.968;105.834;2023-04-03T22:20:53;56.00;;;33.42;;
22606;SDS011;11470;20.968;105.834;2023-04-03T22:26:01;52.53;;;33.25;;
22606;SDS011;11470;20.968;105.834;2023-04-03T22:31:13;58.35;;;35.90;;
22606;SDS011;11470;20.968;105.834;2023-04-03T22:36:19;53.28;;;33.25;;
22606;SDS011;11470;20.968;105.834;2023-04-03T22:41:25;46.33;;;29.60;;
22606;SDS011;11470;20.968;105.834;2023-04-03T22:51:36;67.45;;;36.72;;
22606;SDS011;11470;20.968;105.834;2023-04-03T22:56:42;48.80;;;34.58;;
22606;SDS011;11470;20.968;105.834;2023-04-03T23:01:48;69.65;;;38.58;;
22606;SDS011;11470;20.968;105.834;2023-04-03T23:06:55;42.13;;;28.10;;
22606;SDS011;11470;20.968;105.834;2023-04-03T23:12:02;70.10;;;40.05;;
22606;SDS011;11470;20.968;105.834;2023-04-03T23:17:08;57.30;;;36.42;;
22606;SDS011;11470;20.968;105.834;2023-04-03T23:22:13;54.70;;;33.07;;
22606;SDS011;11470;20.968;105.834;2023-04-03T23:27:20;55.95;;;35.83;;
22606;SDS011;11470;20.968;105.834;2023-04-03T23:32:25;62.70;;;38.25;;
22606;SDS011;11470;20.968;105.834;2023-04-03T23:37:33;54.67;;;34.58;;
22606;SDS011;11470;20.968;105.834;2023-04-03T23:42:39;58.72;;;35.20;;
22606;SDS011;11470;20.968;105.834;2023-04-03T23:47:46;61.17;;;37.30;;
22606;SDS011;11470;20.968;105.834;2023-04-03T23:52:57;56.33;;;37.10;;
22606;SDS011;11470;20.968;105.834;2023-04-03T23:58:03;44.28;;;30.33;;
